createdAt,value
2018-04-23T00:00:28.820Z,14.33
2018-04-23T00:02:56.304Z,11.00
2018-04-23T00:05:23.789Z,12.53
2018-04-23T00:07:51.274Z,8.93
2018-04-23T00:10:18.761Z,14.03
2018-04-23T00:12:46.241Z,8.70
2018-04-23T00:15:13.731Z,13.17
2018-04-23T00:17:41.271Z,11.70
2018-04-23T00:20:08.776Z,16.13
2018-04-23T00:22:36.259Z,19.63
2018-04-23T00:25:03.744Z,12.07
2018-04-23T00:27:31.267Z,19.40
2018-04-23T00:29:58.805Z,14.53
2018-04-23T00:32:26.290Z,16.37
2018-04-23T00:34:53.857Z,16.90
2018-04-23T00:37:21.343Z,13.37
2018-04-23T00:39:48.824Z,17.57
2018-04-23T00:42:16.306Z,13.03
2018-04-23T00:44:43.780Z,22.00
2018-04-23T00:47:11.260Z,14.23
2018-04-23T00:49:38.747Z,12.20
2018-04-23T00:52:06.254Z,19.53
2018-04-23T00:54:33.763Z,14.23
2018-04-23T00:57:01.248Z,11.50
2018-04-23T00:59:28.810Z,16.33
2018-04-23T01:01:56.332Z,12.07
2018-04-23T01:04:23.815Z,16.80
2018-04-23T01:06:51.312Z,13.67
2018-04-23T01:09:18.788Z,23.90
2018-04-23T01:11:46.304Z,20.93
2018-04-23T01:14:13.801Z,14.07
2018-04-23T01:16:41.298Z,15.80
2018-04-23T01:19:08.795Z,10.67
2018-04-23T01:21:36.313Z,14.47
2018-04-23T01:24:03.791Z,11.13
2018-04-23T01:26:31.290Z,12.27
2018-04-23T01:28:58.767Z,9.37
2018-04-23T01:31:26.252Z,17.03
2018-04-23T01:33:53.864Z,16.77
2018-04-23T01:36:21.411Z,24.93
2018-04-23T01:38:48.899Z,13.13
2018-04-23T01:41:16.396Z,15.47
2018-04-23T01:43:43.888Z,15.57
2018-04-23T01:46:11.370Z,20.70
2018-04-23T01:48:38.844Z,14.17
2018-04-23T01:51:06.346Z,14.40
2018-04-23T01:53:33.833Z,9.40
2018-04-23T01:56:01.361Z,17.93
2018-04-23T01:58:28.841Z,14.73
2018-04-23T02:00:56.327Z,17.50
2018-04-23T02:03:23.816Z,11.47
2018-04-23T02:05:51.342Z,15.53
2018-04-23T02:08:18.864Z,17.03
2018-04-23T02:10:46.348Z,18.70
2018-04-23T02:13:13.893Z,15.67
2018-04-23T02:15:41.387Z,14.50
2018-04-23T02:18:09.009Z,20.67
2018-04-23T02:20:36.480Z,18.20
2018-04-23T02:23:03.977Z,10.67
2018-04-23T02:25:31.455Z,17.93
2018-04-23T02:27:58.956Z,14.80
2018-04-23T02:30:26.437Z,13.33
2018-04-23T02:32:53.944Z,24.70
2018-04-23T02:35:21.423Z,11.90
2018-04-23T02:37:49.390Z,20.30
2018-04-23T02:40:16.873Z,12.27
2018-04-23T02:42:44.356Z,10.20
2018-04-23T02:45:11.830Z,18.10
2018-04-23T02:47:39.309Z,16.83
2018-04-23T02:50:06.791Z,17.63
2018-04-23T02:52:34.306Z,16.73
2018-04-23T02:55:01.828Z,10.90
2018-04-23T02:57:29.315Z,15.17
2018-04-23T02:59:56.789Z,18.70
2018-04-23T03:02:24.273Z,15.77
2018-04-23T03:04:51.772Z,22.70
2018-04-23T03:07:19.271Z,11.37
2018-04-23T03:09:47.080Z,20.33
2018-04-23T03:12:14.577Z,12.10
2018-04-23T03:14:42.087Z,13.50
2018-04-23T03:17:09.608Z,17.97
2018-04-23T03:19:37.108Z,14.47
2018-04-23T03:22:04.593Z,10.83
2018-04-23T03:24:33.052Z,15.90
2018-04-23T03:27:00.584Z,16.17
2018-04-23T03:29:28.085Z,16.13
2018-04-23T03:31:55.604Z,15.90
2018-04-23T03:34:23.093Z,13.43
2018-04-23T03:36:50.584Z,17.73
2018-04-23T03:39:18.142Z,13.87
2018-04-23T03:41:45.664Z,13.30
2018-04-23T03:44:13.157Z,9.63
2018-04-23T03:46:40.637Z,13.33
2018-04-23T03:49:08.141Z,16.80
2018-04-23T03:51:35.647Z,12.90
2018-04-23T03:54:03.247Z,16.27
2018-04-23T03:56:30.736Z,12.63
2018-04-23T03:58:58.355Z,13.20
2018-04-23T04:01:26.064Z,17.53
2018-04-23T04:03:53.612Z,13.77
2018-04-23T04:06:21.359Z,15.43
2018-04-23T04:08:48.854Z,17.57
2018-04-23T04:11:16.332Z,22.97
2018-04-23T04:13:49.871Z,20.37
2018-04-23T04:16:23.102Z,18.37
2018-04-23T04:18:50.692Z,19.73
2018-04-23T04:21:18.192Z,13.37
2018-04-23T04:23:45.680Z,12.33
2018-04-23T04:26:13.191Z,17.20
2018-04-23T04:28:40.668Z,11.87
2018-04-23T04:31:08.204Z,17.90
2018-04-23T04:33:35.722Z,22.00
2018-04-23T04:36:03.232Z,12.43
2018-04-23T04:38:30.783Z,14.10
2018-04-23T04:40:58.363Z,16.23
2018-04-23T04:43:25.842Z,19.97
2018-04-23T04:45:53.630Z,15.30
2018-04-23T04:48:21.122Z,14.93
2018-04-23T04:50:48.910Z,18.30
2018-04-23T04:53:16.563Z,13.03
2018-04-23T04:55:44.266Z,16.03
2018-04-23T04:58:11.756Z,17.87
2018-04-23T05:00:39.247Z,17.90
2018-04-23T05:03:07.177Z,17.87
2018-04-23T05:05:34.666Z,24.80
2018-04-23T05:08:02.151Z,11.17
2018-04-23T05:10:29.644Z,13.23
2018-04-23T05:12:57.134Z,17.77
2018-04-23T05:15:24.633Z,13.20
2018-04-23T05:17:52.571Z,20.30
2018-04-23T05:20:20.075Z,20.90
2018-04-23T05:22:47.576Z,19.50
2018-04-23T05:25:15.083Z,22.23
2018-04-23T05:27:42.607Z,16.57
2018-04-23T05:30:10.092Z,17.80
2018-04-23T05:32:37.575Z,12.70
2018-04-23T05:35:05.076Z,16.67
2018-04-23T05:37:32.557Z,21.93
2018-04-23T05:40:00.048Z,18.77
2018-04-23T05:42:27.632Z,22.57
2018-04-23T05:44:55.124Z,15.47
2018-04-23T05:47:22.608Z,22.03
2018-04-23T05:49:50.150Z,21.70
2018-04-23T05:52:17.641Z,19.13
2018-04-23T05:54:45.124Z,16.43
2018-04-23T05:57:12.612Z,15.60
2018-04-23T05:59:40.124Z,17.10
2018-04-23T06:02:07.605Z,13.97
2018-04-23T06:04:35.110Z,24.17
2018-04-23T06:07:02.608Z,19.60
2018-04-23T06:09:30.093Z,10.53
2018-04-23T06:11:57.601Z,17.43
2018-04-23T06:14:25.093Z,15.40
2018-04-23T06:16:52.571Z,17.00
2018-04-23T06:19:20.054Z,21.00
2018-04-23T06:21:47.575Z,17.03
2018-04-23T06:24:15.151Z,17.20
2018-04-23T06:26:42.642Z,17.37
2018-04-23T06:29:10.123Z,21.10
2018-04-23T06:31:37.605Z,18.17
2018-04-23T06:34:05.089Z,20.60
2018-04-23T06:36:32.569Z,14.73
2018-04-23T06:39:00.066Z,16.43
2018-04-23T06:41:27.554Z,15.70
2018-04-23T06:43:55.116Z,17.83
2018-04-23T06:46:22.709Z,13.20
2018-04-23T06:48:50.192Z,14.53
2018-04-23T06:51:17.705Z,17.60
2018-04-23T06:53:45.727Z,20.27
2018-04-23T06:56:13.206Z,19.50
2018-04-23T06:58:40.803Z,29.33
2018-04-23T07:01:08.351Z,21.27
2018-04-23T07:03:35.872Z,23.23
2018-04-23T07:06:03.428Z,22.90
2018-04-23T07:08:30.927Z,16.27
2018-04-23T07:10:58.483Z,21.33
2018-04-23T07:13:26.026Z,30.67
2018-04-23T07:15:53.533Z,26.37
2018-04-23T07:18:21.103Z,23.97
2018-04-23T07:20:48.608Z,14.10
2018-04-23T07:23:16.201Z,24.47
2018-04-23T07:25:43.831Z,16.57
2018-04-23T07:28:11.473Z,17.37
2018-04-23T07:30:38.973Z,21.70
2018-04-23T07:33:06.483Z,13.20
2018-04-23T07:35:33.968Z,17.17
2018-04-23T07:38:01.460Z,18.00
2018-04-23T07:40:28.964Z,17.40
2018-04-23T07:42:56.467Z,15.20
2018-04-23T07:45:24.020Z,19.73
2018-04-23T07:47:51.607Z,17.73
2018-04-23T07:50:19.116Z,19.70
2018-04-23T07:52:46.607Z,19.90
2018-04-23T07:55:14.106Z,19.03
2018-04-23T07:57:41.762Z,20.93
2018-04-23T08:00:09.250Z,21.53
2018-04-23T08:02:36.795Z,15.73
2018-04-23T08:05:04.305Z,14.63
2018-04-23T08:07:31.784Z,25.00
2018-04-23T08:09:59.288Z,17.20
2018-04-23T08:12:26.785Z,20.60
2018-04-23T08:14:54.281Z,15.23
2018-04-23T08:17:21.797Z,17.20
2018-04-23T08:19:49.447Z,13.67
2018-04-23T08:22:17.128Z,14.47
2018-04-23T08:24:44.679Z,19.60
2018-04-23T08:27:12.161Z,19.67
2018-04-23T08:29:39.693Z,18.20
2018-04-23T08:32:07.192Z,19.50
2018-04-23T08:34:34.707Z,17.53
2018-04-23T08:37:02.202Z,17.33
2018-04-23T08:39:29.691Z,14.77
2018-04-23T08:41:57.185Z,22.40
2018-04-23T08:44:24.670Z,23.47
2018-04-23T08:46:52.633Z,18.53
2018-04-23T08:49:20.124Z,18.50
2018-04-23T08:51:47.627Z,19.30
2018-04-23T08:54:15.104Z,22.73
2018-04-23T08:56:42.596Z,25.77
2018-04-23T08:59:10.092Z,14.13
2018-04-23T09:01:37.634Z,16.27
2018-04-23T09:04:05.138Z,18.00
2018-04-23T09:06:32.829Z,24.63
2018-04-23T09:09:00.324Z,22.30
2018-04-23T09:11:27.923Z,21.00
2018-04-23T09:13:55.415Z,16.63
2018-04-23T09:16:22.911Z,18.73
2018-04-23T09:18:50.428Z,15.53
2018-04-23T09:21:17.944Z,17.67
2018-04-23T09:23:45.459Z,22.63
2018-04-23T09:26:13.056Z,13.67
2018-04-23T09:28:40.569Z,14.47
2018-04-23T09:31:08.054Z,14.63
2018-04-23T09:33:35.633Z,13.47
2018-04-23T09:36:03.171Z,18.97
2018-04-23T09:38:30.676Z,14.40
2018-04-23T09:40:58.352Z,17.73
2018-04-23T09:43:25.947Z,16.57
2018-04-23T09:45:53.440Z,19.73
2018-04-23T09:48:21.001Z,15.87
2018-04-23T09:50:48.482Z,12.60
2018-04-23T09:53:15.959Z,12.83
2018-04-23T09:55:43.448Z,23.23
2018-04-23T09:58:10.960Z,14.97
2018-04-23T10:00:38.511Z,14.47
2018-04-23T10:03:08.769Z,15.23
2018-04-23T10:05:36.326Z,11.33
2018-04-23T10:08:03.823Z,17.37
2018-04-23T10:10:31.316Z,19.13
2018-04-23T10:12:58.804Z,13.00
2018-04-23T10:15:26.294Z,12.97
2018-04-23T10:17:53.787Z,16.40
2018-04-23T10:20:21.272Z,11.67
2018-04-23T10:22:48.764Z,12.63
2018-04-23T10:25:16.260Z,13.53
2018-04-23T10:27:43.741Z,15.20
2018-04-23T10:30:11.230Z,21.17
2018-04-23T10:32:38.731Z,12.50
2018-04-23T10:35:06.226Z,13.67
2018-04-23T10:37:33.879Z,15.53
2018-04-23T10:40:01.390Z,14.10
2018-04-23T10:42:28.916Z,12.37
2018-04-23T10:44:56.415Z,11.47
2018-04-23T10:47:23.900Z,15.80
2018-04-23T10:49:51.484Z,16.07
2018-04-23T10:52:18.975Z,15.73
2018-04-23T10:54:46.485Z,11.63
2018-04-23T10:57:13.980Z,12.37
2018-04-23T10:59:41.498Z,12.13
2018-04-23T11:02:09.003Z,15.33
2018-04-23T11:04:36.510Z,7.93
2018-04-23T11:07:04.129Z,17.40
2018-04-23T11:09:31.706Z,15.73
2018-04-23T11:11:59.252Z,19.57
2018-04-23T11:14:26.743Z,15.43
2018-04-23T11:16:54.274Z,17.90
2018-04-23T11:19:21.784Z,16.00
2018-04-23T11:21:49.275Z,10.70
2018-04-23T11:24:16.795Z,15.53
2018-04-23T11:26:44.295Z,17.93
2018-04-23T11:29:11.797Z,11.77
2018-04-23T11:31:39.301Z,15.93
2018-04-23T11:34:06.787Z,11.73
2018-04-23T11:36:34.282Z,4.67
2018-04-23T11:39:01.799Z,8.93
2018-04-23T11:41:29.409Z,11.77
2018-04-23T11:43:56.908Z,6.00
2018-04-23T11:46:24.391Z,5.97
2018-04-23T11:48:51.906Z,6.33
2018-04-23T11:51:19.499Z,9.07
2018-04-23T11:53:46.986Z,10.17
2018-04-23T11:56:14.475Z,8.13
2018-04-23T11:58:41.955Z,8.50
2018-04-23T12:01:09.438Z,8.07
2018-04-23T12:03:36.937Z,9.83
2018-04-23T12:06:04.424Z,6.23
2018-04-23T12:08:31.901Z,5.47
2018-04-23T12:10:59.435Z,6.87
2018-04-23T12:13:26.962Z,7.43
2018-04-23T12:15:54.435Z,6.47
2018-04-23T12:18:21.994Z,6.23
2018-04-23T12:20:49.476Z,6.13
2018-04-23T12:23:16.957Z,4.37
2018-04-23T12:25:44.431Z,3.90
2018-04-23T12:28:11.915Z,2.60
2018-04-23T12:30:39.425Z,5.83
2018-04-23T12:33:06.917Z,7.70
2018-04-23T12:35:34.404Z,6.37
2018-04-23T12:38:01.912Z,5.90
2018-04-23T12:40:29.412Z,6.00
2018-04-23T12:42:56.950Z,6.10
2018-04-23T12:45:24.485Z,10.63
2018-04-23T12:47:51.985Z,5.07
2018-04-23T12:50:19.481Z,5.37
2018-04-23T12:52:47.417Z,3.60
2018-04-23T12:55:14.973Z,5.53
2018-04-23T12:57:42.475Z,8.50
2018-04-23T13:00:09.976Z,6.17
2018-04-23T13:02:37.452Z,5.77
2018-04-23T13:05:04.984Z,6.37
2018-04-23T13:07:32.481Z,8.40
2018-04-23T13:09:59.964Z,6.07
2018-04-23T13:12:27.441Z,5.43
2018-04-23T13:14:54.930Z,3.43
2018-04-23T13:17:22.467Z,7.10
2018-04-23T13:19:49.963Z,2.80
2018-04-23T13:22:17.536Z,3.97
2018-04-23T13:24:45.020Z,4.90
2018-04-23T13:27:12.537Z,3.57
2018-04-23T13:29:40.018Z,3.50
2018-04-23T13:32:07.517Z,5.63
2018-04-23T13:34:35.006Z,3.33
2018-04-23T13:37:02.505Z,5.83
2018-04-23T13:39:29.988Z,8.63
2018-04-23T13:41:57.476Z,4.60
2018-04-23T13:44:24.974Z,4.87
2018-04-23T13:46:52.456Z,7.80
2018-04-23T13:49:20.093Z,5.07
2018-04-23T13:51:47.598Z,8.60
2018-04-23T13:54:15.427Z,4.37
2018-04-23T13:56:42.919Z,2.83
2018-04-23T13:59:10.416Z,6.40
2018-04-23T14:01:37.915Z,4.40
2018-04-23T14:04:05.399Z,8.33
2018-04-23T14:06:32.893Z,4.50
2018-04-23T14:09:00.384Z,5.10
2018-04-23T14:11:27.869Z,2.27
2018-04-23T14:13:55.366Z,4.30
2018-04-23T14:16:22.864Z,4.73
2018-04-23T14:18:50.353Z,6.40
2018-04-23T14:21:18.408Z,4.80
2018-04-23T14:23:45.915Z,4.87
2018-04-23T14:26:13.384Z,4.50
2018-04-23T14:28:40.888Z,4.30
2018-04-23T14:31:08.376Z,5.10
2018-04-23T14:33:35.859Z,3.40
2018-04-23T14:36:03.405Z,2.63
2018-04-23T14:38:30.924Z,4.13
2018-04-23T14:40:58.420Z,4.33
2018-04-23T14:43:25.928Z,3.50
2018-04-23T14:45:53.404Z,3.50
2018-04-23T14:48:20.893Z,4.57
2018-04-23T14:50:48.417Z,6.37
2018-04-23T14:53:16.520Z,4.73
2018-04-23T14:55:44.352Z,3.73
2018-04-23T14:58:11.907Z,5.67
2018-04-23T15:00:39.409Z,9.50
2018-04-23T15:03:07.212Z,5.60
2018-04-23T15:05:34.695Z,6.73
2018-04-23T15:08:02.172Z,8.43
2018-04-23T15:10:29.664Z,4.77
2018-04-23T15:12:57.158Z,3.37
2018-04-23T15:15:24.605Z,5.10
2018-04-23T15:17:52.110Z,4.93
2018-04-23T15:20:19.623Z,6.27
2018-04-23T15:22:47.107Z,3.43
2018-04-23T15:25:14.651Z,7.23
2018-04-23T15:27:42.142Z,7.63
2018-04-23T15:30:09.625Z,7.43
2018-04-23T15:32:37.161Z,4.57
2018-04-23T15:35:04.670Z,5.23
2018-04-23T15:37:32.158Z,3.47
2018-04-23T15:39:59.646Z,6.67
2018-04-23T15:42:27.253Z,3.83
2018-04-23T15:44:54.804Z,6.63
2018-04-23T15:47:22.287Z,5.47
2018-04-23T15:49:49.767Z,4.33
2018-04-23T15:52:17.339Z,5.00
2018-04-23T15:54:44.836Z,4.83
2018-04-23T15:57:12.828Z,3.97
2018-04-23T15:59:40.313Z,5.77
2018-04-23T16:02:07.802Z,3.13
2018-04-23T16:04:35.296Z,3.53
2018-04-23T16:07:02.785Z,5.20
2018-04-23T16:09:30.328Z,4.17
2018-04-23T16:11:57.818Z,4.23
2018-04-23T16:14:25.310Z,4.43
2018-04-23T16:16:52.806Z,5.30
2018-04-23T16:19:20.431Z,4.20
2018-04-23T16:21:48.128Z,3.70
2018-04-23T16:24:16.177Z,2.70
2018-04-23T16:26:43.668Z,4.77
2018-04-23T16:29:11.637Z,4.00
2018-04-23T16:31:39.290Z,5.33
2018-04-23T16:34:06.798Z,3.87
2018-04-23T16:36:34.312Z,5.50
2018-04-23T16:39:02.113Z,4.80
2018-04-23T16:41:29.894Z,4.30
2018-04-23T16:43:57.634Z,5.20
2018-04-23T16:46:25.881Z,6.17
2018-04-23T16:48:53.427Z,5.80
2018-04-23T16:51:21.106Z,5.53
2018-04-23T16:53:48.803Z,4.30
2018-04-23T16:56:17.197Z,3.73
2018-04-23T16:58:45.091Z,4.03
2018-04-23T17:01:12.860Z,5.40
2018-04-23T17:03:40.366Z,6.47
2018-04-23T17:06:08.008Z,3.63
2018-04-23T17:08:35.514Z,3.57
2018-04-23T17:11:03.185Z,6.67
2018-04-23T17:13:31.374Z,4.77
2018-04-23T17:15:58.867Z,3.97
2018-04-23T17:18:26.716Z,5.77
2018-04-23T17:20:54.207Z,4.30
2018-04-23T17:23:21.829Z,4.67
2018-04-23T17:25:49.352Z,8.77
2018-04-23T17:28:16.837Z,8.47
2018-04-23T17:30:44.381Z,4.20
2018-04-23T17:33:12.211Z,4.07
2018-04-23T17:35:40.340Z,5.77
2018-04-23T17:38:07.838Z,6.70
2018-04-23T17:40:35.749Z,7.07
2018-04-23T17:43:03.444Z,4.73
2018-04-23T17:45:30.957Z,8.10
2018-04-23T17:47:58.565Z,5.80
2018-04-23T17:50:26.043Z,4.63
2018-04-23T17:52:53.540Z,5.80
2018-04-23T17:55:20.979Z,4.53
2018-04-23T17:57:48.623Z,6.40
2018-04-23T18:00:16.175Z,8.00
2018-04-23T18:02:43.674Z,6.47
2018-04-23T18:05:11.707Z,4.03
2018-04-23T18:07:39.212Z,6.33
2018-04-23T18:10:06.713Z,7.10
2018-04-23T18:12:34.194Z,9.30
2018-04-23T18:15:01.633Z,4.33
2018-04-23T18:17:29.064Z,4.63
2018-04-23T18:19:56.507Z,5.47
2018-04-23T18:22:23.998Z,7.40
2018-04-23T18:24:51.451Z,7.13
2018-04-23T18:27:18.888Z,6.57
2018-04-23T18:29:46.363Z,7.43
2018-04-23T18:32:13.964Z,10.47
2018-04-23T18:34:41.766Z,5.87
2018-04-23T18:37:09.353Z,5.10
2018-04-23T18:39:36.810Z,3.00
2018-04-23T18:42:04.334Z,8.47
2018-04-23T18:44:32.032Z,6.37
2018-04-23T18:46:59.494Z,3.80
2018-04-23T18:49:26.927Z,3.90
2018-04-23T18:51:54.441Z,8.33
2018-04-23T18:54:21.883Z,4.53
2018-04-23T18:56:49.392Z,5.90
2018-04-23T18:59:16.980Z,3.97
2018-04-23T19:01:44.478Z,5.20
2018-04-23T19:04:12.241Z,4.13
2018-04-23T19:06:39.761Z,6.43
2018-04-23T19:09:08.002Z,7.47
2018-04-23T19:11:35.520Z,11.00
2018-04-23T19:14:02.987Z,6.63
2018-04-23T19:16:30.612Z,11.00
2018-04-23T19:18:58.132Z,8.37
2018-04-23T19:21:25.568Z,6.67
2018-04-23T19:23:53.116Z,8.00
2018-04-23T19:26:20.589Z,5.07
2018-04-23T19:28:48.279Z,8.87
2018-04-23T19:31:15.817Z,5.70
2018-04-23T19:33:43.361Z,7.87
2018-04-23T19:36:10.883Z,14.27
2018-04-23T19:38:38.508Z,11.47
2018-04-23T19:41:06.163Z,10.23
2018-04-23T19:43:33.711Z,10.97
2018-04-23T19:46:01.366Z,4.80
2018-04-23T19:48:28.904Z,4.77
2018-04-23T19:50:57.046Z,6.43
2018-04-23T19:53:25.107Z,7.10
2018-04-23T19:55:53.131Z,7.00
2018-04-23T19:58:20.914Z,3.93
2018-04-23T20:00:48.940Z,15.10
2018-04-23T20:03:16.831Z,8.43
2018-04-23T20:05:44.414Z,7.10
2018-04-23T20:08:12.015Z,5.97
2018-04-23T20:10:39.665Z,10.03
2018-04-23T20:13:07.420Z,5.80
2018-04-23T20:15:35.023Z,6.57
2018-04-23T20:18:02.838Z,6.07
2018-04-23T20:20:30.417Z,9.03
2018-04-23T20:22:57.902Z,7.50
2018-04-23T20:25:25.389Z,8.40
2018-04-23T20:27:52.831Z,6.47
2018-04-23T20:30:20.315Z,10.20
2018-04-23T20:32:47.829Z,6.67
2018-04-23T20:35:15.351Z,3.13
2018-04-23T20:37:42.804Z,4.23
2018-04-23T20:40:10.313Z,4.70
2018-04-23T20:42:37.744Z,7.90
2018-04-23T20:45:05.275Z,6.13
2018-04-23T20:47:32.791Z,5.50
2018-04-23T20:50:00.262Z,7.70
2018-04-23T20:52:27.936Z,4.67
2018-04-23T20:54:55.410Z,6.90
2018-04-23T20:57:22.933Z,6.83
2018-04-23T20:59:50.395Z,7.67
2018-04-23T21:02:17.868Z,10.87
2018-04-23T21:04:45.583Z,4.90
2018-04-23T21:07:13.064Z,5.40
2018-04-23T21:09:40.561Z,7.63
2018-04-23T21:12:08.042Z,8.37
2018-04-23T21:14:35.479Z,8.83
2018-04-23T21:17:03.388Z,6.80
2018-04-23T21:19:30.832Z,7.23
2018-04-23T21:21:58.256Z,4.33
2018-04-23T21:24:25.689Z,4.67
2018-04-23T21:26:53.128Z,4.30
2018-04-23T21:29:20.559Z,4.97
2018-04-23T21:31:48.048Z,6.63
2018-04-23T21:34:15.476Z,6.30
2018-04-23T21:36:42.920Z,5.80
2018-04-23T21:39:10.347Z,4.20
2018-04-23T21:41:37.844Z,7.03
2018-04-23T21:44:05.292Z,6.67
2018-04-23T21:46:32.771Z,6.70
2018-04-23T21:49:00.278Z,5.80
2018-04-23T21:51:27.752Z,7.50
2018-04-23T21:53:55.199Z,8.20
2018-04-23T21:56:22.629Z,9.07
2018-04-23T21:58:50.072Z,4.57
2018-04-23T22:01:17.572Z,5.60
2018-04-23T22:03:45.033Z,5.20
2018-04-23T22:06:12.756Z,7.40
2018-04-23T22:08:40.191Z,5.40
2018-04-23T22:11:07.759Z,7.73
2018-04-23T22:13:35.231Z,6.20
2018-04-23T22:16:02.681Z,6.50
2018-04-23T22:18:30.140Z,10.17
2018-04-23T22:20:58.156Z,6.93
2018-04-23T22:23:25.587Z,4.70
2018-04-23T22:25:53.028Z,8.60
2018-04-23T22:28:20.484Z,4.90
2018-04-23T22:30:47.968Z,5.70
2018-04-23T22:33:15.396Z,7.00
2018-04-23T22:35:42.966Z,6.03
2018-04-23T22:38:10.401Z,6.60
2018-04-23T22:40:37.947Z,8.20
2018-04-23T22:43:05.397Z,7.17
2018-04-23T22:45:32.831Z,5.77
2018-04-23T22:48:00.272Z,4.20
2018-04-23T22:50:27.754Z,5.67
2018-04-23T22:52:55.244Z,7.37
2018-04-23T22:55:22.689Z,7.60
2018-04-23T22:57:50.128Z,7.37
2018-04-23T23:00:17.635Z,6.03
2018-04-23T23:02:45.162Z,6.10
2018-04-23T23:05:12.722Z,7.43
2018-04-23T23:07:40.298Z,9.67
2018-04-23T23:10:07.804Z,9.50
2018-04-23T23:12:35.319Z,7.67
2018-04-23T23:15:02.875Z,5.63
2018-04-23T23:17:30.403Z,5.17
2018-04-23T23:19:57.910Z,7.67
2018-04-23T23:22:25.401Z,8.30
2018-04-23T23:24:53.029Z,8.73
2018-04-23T23:27:20.571Z,4.37
2018-04-23T23:29:48.053Z,7.93
2018-04-23T23:32:15.573Z,10.37
2018-04-23T23:34:43.076Z,8.00
2018-04-23T23:37:10.578Z,6.30
2018-04-23T23:39:38.092Z,4.83
2018-04-23T23:42:05.605Z,8.73
2018-04-23T23:44:33.105Z,8.37
2018-04-23T23:47:00.601Z,5.67
2018-04-23T23:49:28.245Z,5.27
2018-04-23T23:51:55.761Z,11.03
2018-04-23T23:54:23.253Z,5.57
2018-04-23T23:56:51.236Z,9.40
2018-04-23T23:59:18.773Z,6.73
